Time;durP1;ratioP1;P1;durP2;ratioP2;P2;SDS_P1;SDS_P2;PMS_P1;PMS_P2;Temp;Humidity;BMP_temperature;BMP_pressure;BME280_temperature;BME280_humidity;BME280_pressure;Samples;Min_cycle;Max_cycle;Signal;HPM_P1;HPM_P2
2023/10/01 00:00:32;;;;;;;16.60;12.98;;;18.70;69.50;;;;;;5075823;28;20039;-65
2023/10/01 00:02:59;;;;;;;15.70;12.05;;;18.80;69.10;;;;;;5076172;28;20025;-66
2023/10/01 00:05:26;;;;;;;15.60;11.43;;;18.80;68.40;;;;;;5075517;28;20020;-63
2023/10/01 00:07:52;;;;;;;17.40;12.45;;;18.80;68.40;;;;;;5075807;28;20085;-66
2023/10/01 00:10:19;;;;;;;18.92;12.27;;;18.80;68.20;;;;;;5074575;28;20451;-64
2023/10/01 00:12:52;;;;;;;15.73;11.40;;;18.70;68.20;;;;;;5075490;28;20032;-63
2023/10/01 00:15:27;;;;;;;14.30;10.70;;;18.60;68.20;;;;;;5075136;28;20020;-63
2023/10/01 00:17:53;;;;;;;15.60;11.75;;;18.50;68.40;;;;;;5075767;28;20089;-66
2023/10/01 00:20:24;;;;;;;14.90;12.02;;;18.40;68.50;;;;;;5075857;28;20029;-65
2023/10/01 00:23:05;;;;;;;15.25;11.10;;;18.40;68.60;;;;;;5075974;28;20024;-64
2023/10/01 00:25:35;;;;;;;15.15;10.75;;;18.40;68.70;;;;;;5075570;28;20032;-63
2023/10/01 00:28:08;;;;;;;16.42;11.60;;;18.30;68.80;;;;;;5075841;28;20460;-66
2023/10/01 00:33:21;;;;;;;15.27;11.02;;;18.20;69.10;;;;;;5075841;28;20086;-65
2023/10/01 00:35:47;;;;;;;14.88;10.82;;;18.20;69.20;;;;;;5075223;28;20025;-66
2023/10/01 00:38:16;;;;;;;14.30;10.57;;;18.20;69.00;;;;;;5074932;28;20053;-65
2023/10/01 00:40:42;;;;;;;16.85;11.95;;;18.20;69.10;;;;;;5075064;28;20107;-64
2023/10/01 00:43:14;;;;;;;16.48;11.35;;;18.20;69.30;;;;;;5075085;28;20350;-63
2023/10/01 00:45:58;;;;;;;17.23;11.10;;;18.20;69.20;;;;;;5075110;28;20450;-66
2023/10/01 00:48:29;;;;;;;14.25;10.88;;;18.20;69.20;;;;;;5075709;28;20043;-65
2023/10/01 00:51:00;;;;;;;14.98;10.50;;;18.20;69.30;;;;;;5075135;28;20023;-65
2023/10/01 00:53:29;;;;;;;15.00;10.43;;;18.20;69.20;;;;;;5075081;28;20331;-65
2023/10/01 00:56:02;;;;;;;15.20;11.40;;;18.20;69.10;;;;;;5075279;28;20115;-66
2023/10/01 00:58:35;;;;;;;13.52;10.23;;;18.20;69.20;;;;;;5075044;28;20446;-65
2023/10/01 01:01:12;;;;;;;;;;;18.30;69.10;;;;;;5076007;28;20048;-66
2023/10/01 01:03:52;;;;;;;13.45;9.30;;;18.30;70.20;;;;;;5075010;28;20340;-62
2023/10/01 01:06:25;;;;;;;14.05;10.40;;;18.30;68.90;;;;;;5075180;28;20028;-64
2023/10/01 01:09:10;;;;;;;12.37;9.30;;;18.30;68.80;;;;;;5074916;28;20032;-63
2023/10/01 01:11:58;;;;;;;13.45;9.80;;;18.30;68.70;;;;;;5073402;28;20274;-63
2023/10/01 01:14:26;;;;;;;14.23;11.25;;;18.20;68.70;;;;;;5073424;28;20036;-65
2023/10/01 01:17:00;;;;;;;16.70;10.95;;;18.20;68.70;;;;;;5073358;28;20106;-65
2023/10/01 01:19:26;;;;;;;13.90;9.73;;;18.20;68.70;;;;;;5073105;28;20082;-64
2023/10/01 01:21:52;;;;;;;13.05;9.77;;;18.20;68.80;;;;;;5073235;28;20071;-66
2023/10/01 01:24:25;;;;;;;13.55;10.52;;;18.10;68.90;;;;;;5073081;28;20031;-66
2023/10/01 01:27:00;;;;;;;14.18;10.60;;;18.10;68.90;;;;;;5073155;28;20111;-63
2023/10/01 01:29:40;;;;;;;12.63;9.73;;;18.10;68.80;;;;;;5073064;28;20032;-64
2023/10/01 01:34:43;;;;;;;16.80;11.45;;;18.00;69.10;;;;;;5073312;28;20054;-65
2023/10/01 01:37:30;;;;;;;13.82;10.23;;;18.10;69.30;;;;;;5072856;28;20110;-65
2023/10/01 01:40:24;;;;;;;14.13;10.32;;;18.00;69.20;;;;;;5074868;28;20059;-65
2023/10/01 01:43:03;;;;;;;15.15;10.95;;;18.00;69.20;;;;;;5076926;28;20377;-64
2023/10/01 01:45:38;;;;;;;13.68;10.40;;;18.00;69.40;;;;;;5061092;28;20343;-66
2023/10/01 01:48:21;;;;;;;14.75;10.27;;;18.00;69.20;;;;;;5076632;28;20036;-66
2023/10/01 01:51:01;;;;;;;14.90;10.93;;;18.00;69.20;;;;;;5076171;28;20109;-66
2023/10/01 01:53:35;;;;;;;12.85;10.65;;;18.00;69.00;;;;;;5076860;28;20107;-64
2023/10/01 01:56:09;;;;;;;13.55;9.18;;;17.90;69.10;;;;;;5076222;28;20032;-63
2023/10/01 01:58:40;;;;;;;15.90;10.30;;;17.90;69.30;;;;;;5076472;28;20175;-63
2023/10/01 02:03:44;;;;;;;13.60;8.82;;;17.90;69.30;;;;;;5076363;28;20029;-64
2023/10/01 02:06:10;;;;;;;13.85;9.07;;;17.90;69.20;;;;;;5076073;28;20465;-63
2023/10/01 02:08:49;;;;;;;14.02;8.48;;;17.90;69.20;;;;;;5076219;28;20501;-63
2023/10/01 02:11:22;;;;;;;12.10;8.32;;;17.90;69.10;;;;;;5076001;28;20070;-64
2023/10/01 02:13:55;;;;;;;11.48;7.85;;;18.00;69.00;;;;;;5077221;28;20082;-65
2023/10/01 02:19:02;;;;;;;11.77;8.85;;;18.00;68.70;;;;;;5077557;28;20039;-65
2023/10/01 02:21:49;;;;;;;12.00;8.68;;;18.10;68.70;;;;;;5077419;28;20047;-66
2023/10/01 02:24:22;;;;;;;12.82;8.70;;;18.10;68.50;;;;;;5077331;28;20351;-63
2023/10/01 02:26:53;;;;;;;13.20;8.90;;;18.10;68.50;;;;;;5077382;28;20044;-65
2023/10/01 02:29:24;;;;;;;11.63;8.57;;;18.10;68.50;;;;;;5077356;28;20103;-63
2023/10/01 02:37:29;;;;;;;11.18;8.75;;;18.10;68.50;;;;;;5076343;28;20350;-64
2023/10/01 02:39:59;;;;;;;12.70;8.68;;;18.20;68.50;;;;;;5077076;28;20469;-64
2023/10/01 02:42:31;;;;;;;11.48;8.43;;;18.20;68.40;;;;;;5078142;28;20029;-63
2023/10/01 02:44:59;;;;;;;14.57;9.60;;;18.20;68.40;;;;;;5076965;28;20033;-64
2023/10/01 02:50:42;;;;;;;11.70;8.10;;;18.20;68.30;;;;;;5076352;28;20043;-65
2023/10/01 02:53:08;;;;;;;12.70;8.45;;;18.20;68.20;;;;;;5076886;28;20020;-65
2023/10/01 02:55:35;;;;;;;12.85;8.13;;;18.20;68.20;;;;;;5076789;28;20036;-65
2023/10/01 02:58:17;;;;;;;11.90;8.68;;;18.20;68.30;;;;;;5076719;28;20032;-65
2023/10/01 03:00:53;;;;;;;12.05;8.23;;;18.20;68.30;;;;;;5076552;28;20369;-66
2023/10/01 03:03:32;;;;;;;17.02;11.13;;;18.20;68.50;;;;;;5076690;28;20020;-65
2023/10/01 03:06:08;;;;;;;13.68;8.93;;;18.10;68.90;;;;;;5076837;28;20056;-66
2023/10/01 03:09:00;;;;;;;10.98;8.10;;;18.00;68.80;;;;;;5076517;28;20024;-66
2023/10/01 03:11:40;;;;;;;14.82;9.88;;;18.00;68.80;;;;;;5076482;28;20051;-63
2023/10/01 03:14:18;;;;;;;11.98;8.63;;;18.00;68.80;;;;;;5076469;28;20028;-63
2023/10/01 03:16:53;;;;;;;11.50;8.25;;;17.90;69.00;;;;;;5076347;28;20076;-66
2023/10/01 03:19:25;;;;;;;13.27;8.52;;;17.90;69.00;;;;;;5076357;28;20472;-64
2023/10/01 03:27:20;;;;;;;11.88;8.45;;;17.80;69.00;;;;;;5076458;28;20033;-64
2023/10/01 03:29:53;;;;;;;11.95;8.60;;;17.80;69.20;;;;;;5076453;28;20036;-63
2023/10/01 03:32:28;;;;;;;13.75;9.32;;;17.80;69.00;;;;;;5076146;28;20062;-64
2023/10/01 03:35:07;;;;;;;11.82;8.32;;;17.70;68.90;;;;;;5076333;28;20419;-67
2023/10/01 03:37:43;;;;;;;12.20;8.45;;;17.80;69.10;;;;;;5075739;28;20028;-65
2023/10/01 03:42:38;;;;;;;12.55;7.95;;;17.70;69.30;;;;;;5076761;28;20067;-65
2023/10/01 03:48:06;;;;;;;12.57;8.15;;;17.70;69.30;;;;;;5075907;28;20043;-63
2023/10/01 03:50:45;;;;;;;11.88;8.43;;;17.80;69.70;;;;;;5075751;28;20029;-66
2023/10/01 03:53:18;;;;;;;10.73;7.93;;;17.90;69.50;;;;;;5075765;28;20036;-66
2023/10/01 03:55:46;;;;;;;13.20;9.15;;;17.90;69.40;;;;;;5075637;28;20028;-65
2023/10/01 03:58:25;;;;;;;10.15;8.25;;;17.80;69.40;;;;;;5075636;28;20032;-64
2023/10/01 04:01:09;;;;;;;12.02;8.65;;;17.80;69.30;;;;;;5074835;28;20028;-63
2023/10/01 04:03:42;;;;;;;12.43;9.02;;;17.70;69.50;;;;;;5075609;28;20074;-63
2023/10/01 04:06:08;;;;;;;12.85;8.55;;;17.70;69.60;;;;;;5075820;28;20021;-63
2023/10/01 04:08:44;;;;;;;11.45;8.80;;;17.60;69.60;;;;;;5074571;28;20020;-64
2023/10/01 04:11:15;;;;;;;13.98;9.00;;;17.60;69.70;;;;;;5075481;28;20081;-65
2023/10/01 04:13:41;;;;;;;11.82;8.65;;;17.60;70.00;;;;;;5074533;28;20115;-66
2023/10/01 04:16:14;;;;;;;10.68;8.00;;;17.60;70.00;;;;;;5074442;28;20028;-66
2023/10/01 04:18:48;;;;;;;12.25;8.55;;;17.60;69.70;;;;;;5075792;28;20024;-64
2023/10/01 04:21:24;;;;;;;12.48;9.02;;;17.50;69.70;;;;;;5075519;28;20028;-64
2023/10/01 04:23:55;;;;;;;12.40;8.45;;;17.50;69.80;;;;;;5075693;28;20194;-67
2023/10/01 04:26:25;;;;;;;11.57;7.88;;;17.50;69.90;;;;;;5075253;28;20069;-65
2023/10/01 04:28:54;;;;;;;11.13;8.10;;;17.40;69.90;;;;;;5075234;28;20032;-66
2023/10/01 04:34:17;;;;;;;12.80;9.30;;;17.40;70.10;;;;;;5076157;28;20044;-65
2023/10/01 04:36:53;;;;;;;12.85;9.60;;;17.30;70.10;;;;;;5075497;28;20028;-66
2023/10/01 04:39:20;;;;;;;14.02;9.35;;;17.30;70.20;;;;;;5074708;28;20061;-64
2023/10/01 04:41:46;;;;;;;13.45;9.68;;;17.30;70.20;;;;;;5075100;28;20024;-66
2023/10/01 04:44:19;;;;;;;12.18;8.85;;;17.20;70.20;;;;;;5075258;28;20035;-64
2023/10/01 04:46:55;;;;;;;13.45;9.57;;;17.20;70.40;;;;;;5075053;28;20028;-64
2023/10/01 04:49:27;;;;;;;11.45;8.60;;;17.20;70.50;;;;;;5075431;28;20046;-64
2023/10/01 04:51:57;;;;;;;12.85;8.40;;;17.10;70.60;;;;;;5074158;28;20377;-66
2023/10/01 04:54:25;;;;;;;12.05;9.15;;;17.10;70.50;;;;;;5075621;28;20029;-66
2023/10/01 04:56:57;;;;;;;10.57;7.97;;;17.10;70.90;;;;;;5074967;28;20111;-66
2023/10/01 04:59:27;;;;;;;13.05;9.18;;;17.10;70.60;;;;;;5075017;28;20369;-64
2023/10/01 05:02:19;;;;;;;13.30;9.43;;;17.10;70.50;;;;;;5073994;28;20024;-64
2023/10/01 05:04:51;;;;;;;11.45;8.13;;;17.00;70.50;;;;;;5074788;28;20040;-64
2023/10/01 05:07:24;;;;;;;12.48;9.20;;;17.00;70.80;;;;;;5073998;28;20025;-64
2023/10/01 05:09:53;;;;;;;14.00;8.90;;;16.90;71.00;;;;;;5075201;28;20063;-66
2023/10/01 05:12:43;;;;;;;15.10;9.77;;;16.90;71.00;;;;;;5075453;28;20472;-63
2023/10/01 05:15:37;;;;;;;11.18;8.50;;;16.90;71.00;;;;;;5078578;28;20437;-66
2023/10/01 05:18:09;;;;;;;14.95;8.65;;;16.90;71.30;;;;;;5078708;28;20069;-65
2023/10/01 05:20:41;;;;;;;11.23;8.18;;;16.90;71.30;;;;;;5078547;28;20043;-64
2023/10/01 05:23:17;;;;;;;12.15;8.70;;;16.90;71.30;;;;;;5079138;28;20031;-64
2023/10/01 05:25:50;;;;;;;11.60;8.43;;;17.00;71.20;;;;;;5078488;28;20024;-66
2023/10/01 05:28:31;;;;;;;14.18;9.77;;;17.10;71.20;;;;;;5078450;28;20020;-66
2023/10/01 05:34:00;;;;;;;12.63;8.27;;;17.20;70.90;;;;;;5077901;28;20071;-65
2023/10/01 05:36:32;;;;;;;13.35;8.75;;;17.20;70.90;;;;;;5078594;28;20036;-63
2023/10/01 05:39:00;;;;;;;13.48;9.43;;;17.20;70.90;;;;;;5078397;28;20470;-66
2023/10/01 05:41:37;;;;;;;13.90;9.10;;;17.20;71.00;;;;;;5077593;28;20040;-64
2023/10/01 05:46:30;;;;;;;13.07;9.75;;;17.40;71.10;;;;;;5078641;28;20031;-66
2023/10/01 05:49:08;;;;;;;14.05;9.23;;;17.40;71.10;;;;;;5078086;28;20016;-64
2023/10/01 05:51:44;;;;;;;14.32;8.35;;;17.50;71.10;;;;;;5078460;28;20032;-66
2023/10/01 05:54:28;;;;;;;12.32;8.80;;;17.70;71.40;;;;;;5078316;28;20078;-66
2023/10/01 05:56:57;;;;;;;12.35;8.70;;;17.90;71.30;;;;;;5078468;28;20078;-66
2023/10/01 05:59:39;;;;;;;13.30;9.15;;;18.00;71.30;;;;;;5078941;28;20434;-64
2023/10/01 06:02:28;;;;;;;13.98;9.52;;;18.30;71.00;;;;;;5077939;28;20100;-63
2023/10/01 06:04:55;;;;;;;11.45;8.95;;;18.40;70.60;;;;;;5077653;28;20048;-65
2023/10/01 06:07:24;;;;;;;11.90;8.63;;;18.70;70.40;;;;;;5077805;28;20481;-66
2023/10/01 06:09:51;;;;;;;14.52;9.48;;;18.80;69.90;;;;;;5076817;28;20035;-65
2023/10/01 06:12:18;;;;;;;13.02;9.65;;;19.00;69.70;;;;;;5077655;28;20031;-67
2023/10/01 06:14:45;;;;;;;13.32;9.38;;;19.30;69.40;;;;;;5077578;28;20017;-65
2023/10/01 06:17:11;;;;;;;15.18;8.93;;;19.50;69.00;;;;;;5077582;28;20025;-64
2023/10/01 06:19:46;;;;;;;12.23;8.35;;;19.70;68.70;;;;;;5077528;28;20028;-66
2023/10/01 06:22:22;;;;;;;11.68;8.75;;;20.00;68.10;;;;;;5077371;28;20039;-64
2023/10/01 06:24:49;;;;;;;11.80;8.25;;;20.40;67.50;;;;;;5077179;28;20040;-66
2023/10/01 06:27:18;;;;;;;10.25;7.28;;;20.80;66.40;;;;;;5077354;28;20028;-62
2023/10/01 06:29:51;;;;;;;17.58;8.18;;;21.10;65.70;;;;;;5077626;28;20361;-64
2023/10/01 06:32:39;;;;;;;10.00;7.32;;;21.40;64.90;;;;;;5077669;28;20071;-64
2023/10/01 06:35:14;;;;;;;13.13;8.30;;;21.70;63.70;;;;;;5077705;28;20027;-66
2023/10/01 06:37:50;;;;;;;10.95;7.30;;;22.00;63.50;;;;;;5077187;28;20525;-63
2023/10/01 06:43:06;;;;;;;8.98;7.05;;;22.40;62.50;;;;;;5057078;28;20759;-66
2023/10/01 06:48:08;;;;;;;8.98;6.65;;;22.80;61.30;;;;;;5057855;28;20367;-65
2023/10/01 06:50:43;;;;;;;8.50;6.75;;;22.90;61.50;;;;;;5057283;28;20107;-65
2023/10/01 06:53:13;;;;;;;10.82;7.68;;;23.10;60.60;;;;;;5057537;28;20035;-65
2023/10/01 06:55:45;;;;;;;9.95;6.50;;;23.30;60.50;;;;;;5056764;28;20086;-64
2023/10/01 06:58:15;;;;;;;7.93;6.30;;;23.40;60.20;;;;;;5057111;28;20047;-63
2023/10/01 07:00:45;;;;;;;9.05;6.82;;;23.60;59.50;;;;;;5056747;28;20108;-62
2023/10/01 07:03:17;;;;;;;9.88;7.07;;;23.70;59.00;;;;;;5057007;28;20445;-64
2023/10/01 07:05:51;;;;;;;11.95;7.57;;;23.90;58.70;;;;;;5056620;28;20032;-63
2023/10/01 07:08:21;;;;;;;9.40;6.72;;;24.00;58.10;;;;;;5055826;28;20021;-62
2023/10/01 07:10:50;;;;;;;10.07;7.07;;;24.10;57.90;;;;;;5057130;28;20108;-60
2023/10/01 07:13:17;;;;;;;9.88;6.40;;;24.10;57.30;;;;;;5056495;28;20037;-63
2023/10/01 07:15:51;;;;;;;8.80;6.50;;;24.20;57.10;;;;;;5056707;28;20025;-62
2023/10/01 07:18:23;;;;;;;10.10;7.18;;;24.20;56.50;;;;;;5056457;28;20429;-64
2023/10/01 07:23:21;;;;;;;9.05;6.75;;;24.30;56.20;;;;;;5056905;28;20021;-61
2023/10/01 07:25:49;;;;;;;10.57;7.25;;;24.40;56.10;;;;;;5056247;28;20025;-63
2023/10/01 07:28:19;;;;;;;11.05;7.18;;;24.50;56.00;;;;;;5055673;28;20099;-63
2023/10/01 07:30:51;;;;;;;9.75;7.25;;;24.50;55.10;;;;;;5056114;28;20061;-65
2023/10/01 07:33:17;;;;;;;9.30;6.30;;;24.60;54.60;;;;;;5057000;28;20032;-62
2023/10/01 07:35:45;;;;;;;9.07;6.53;;;24.70;54.90;;;;;;5055478;28;20031;-64
2023/10/01 07:38:16;;;;;;;10.50;6.80;;;24.70;54.70;;;;;;5059173;28;20044;-65
2023/10/01 07:41:07;;;;;;;9.30;6.43;;;24.80;54.20;;;;;;5075836;28;20183;-66
2023/10/01 07:43:37;;;;;;;9.00;6.80;;;24.90;54.30;;;;;;5075867;28;20056;-65
2023/10/01 07:46:07;;;;;;;10.40;6.95;;;24.90;53.50;;;;;;5075826;28;20366;-66
2023/10/01 07:48:51;;;;;;;9.40;6.35;;;25.10;53.70;;;;;;5075673;28;20335;-66
2023/10/01 07:56:32;;;;;;;9.15;6.28;;;25.30;54.00;;;;;;5076074;28;20020;-65
2023/10/01 08:01:59;;;;;;;9.38;6.03;;;25.50;53.10;;;;;;5075548;28;20054;-62
2023/10/01 08:07:18;;;;;;;8.55;6.38;;;25.60;52.90;;;;;;5075845;28;20060;-64
2023/10/01 08:09:57;;;;;;;10.15;7.00;;;25.80;52.30;;;;;;5075506;28;20031;-65
2023/10/01 08:12:29;;;;;;;11.82;6.93;;;25.80;51.50;;;;;;5075502;28;20464;-66
2023/10/01 08:17:54;;;;;;;9.48;6.32;;;25.90;51.40;;;;;;5076055;28;20366;-64
2023/10/01 08:20:31;;;;;;;9.98;6.18;;;25.90;51.40;;;;;;5075355;28;20040;-62
2023/10/01 08:23:12;;;;;;;10.77;6.60;;;26.00;51.00;;;;;;5076227;28;20025;-62
2023/10/01 08:25:42;;;;;;;10.45;6.05;;;26.00;51.00;;;;;;5075620;28;20150;-64
2023/10/01 08:30:40;;;;;;;8.70;5.95;;;26.10;50.70;;;;;;5075320;28;20115;-68
2023/10/01 08:33:19;;;;;;;10.20;6.28;;;26.10;49.90;;;;;;5075203;28;20032;-66
2023/10/01 08:35:56;;;;;;;8.85;6.00;;;26.10;49.90;;;;;;5075160;28;20043;-67
2023/10/01 08:38:29;;;;;;;8.55;5.45;;;26.10;49.70;;;;;;5074913;28;20381;-69
2023/10/01 08:41:00;;;;;;;9.10;6.32;;;26.20;49.90;;;;;;5075139;28;20159;-68
2023/10/01 08:43:31;;;;;;;10.75;6.72;;;26.20;49.20;;;;;;5075182;28;20035;-65
2023/10/01 08:46:16;;;;;;;8.77;6.13;;;26.30;48.80;;;;;;5075442;28;20024;-69
2023/10/01 08:48:42;;;;;;;7.45;5.40;;;26.30;48.70;;;;;;5078041;28;20028;-66
2023/10/01 08:51:12;;;;;;;8.85;6.25;;;26.30;48.10;;;;;;5079460;28;20462;-65
2023/10/01 08:53:42;;;;;;;12.52;6.45;;;26.20;47.80;;;;;;5079236;28;20036;-65
2023/10/01 08:56:13;;;;;;;9.52;5.95;;;26.20;47.60;;;;;;5079115;28;20107;-63
2023/10/01 08:59:23;;;;;;;8.45;5.75;;;26.10;48.00;;;;;;5079144;28;20086;-70
2023/10/01 09:01:46;;;;;;;20.77;6.40;;;26.10;47.50;;;;;;5078862;28;20171;-69
2023/10/01 09:04:29;;;;;;;15.52;6.68;;;26.10;48.10;;;;;;5079239;28;20099;-67
2023/10/01 09:07:04;;;;;;;11.02;6.25;;;26.10;48.10;;;;;;5079183;28;20103;-67
2023/10/01 09:09:51;;;;;;;9.68;5.95;;;26.00;48.10;;;;;;5077949;28;20078;-68
2023/10/01 09:12:18;;;;;;;8.82;6.00;;;26.00;48.70;;;;;;5078723;28;20060;-66
2023/10/01 09:14:46;;;;;;;8.85;5.70;;;26.10;48.80;;;;;;5082501;28;20017;-66
2023/10/01 09:17:24;;;;;;;8.23;5.75;;;26.20;48.40;;;;;;5098977;28;20023;-69
2023/10/01 09:19:51;;;;;;;10.00;6.45;;;26.30;48.10;;;;;;5097032;28;20035;-66
2023/10/01 09:22:35;;;;;;;10.23;6.30;;;26.30;48.40;;;;;;5097438;28;20031;-69
2023/10/01 09:25:25;;;;;;;10.93;6.88;;;26.30;48.30;;;;;;5097125;28;20035;-68
2023/10/01 09:27:58;;;;;;;10.35;6.15;;;26.00;45.90;;;;;;5098872;28;20046;-70
2023/10/01 09:30:26;;;;;;;8.40;5.88;;;26.00;47.50;;;;;;5099376;28;20028;-72
2023/10/01 09:32:54;;;;;;;12.40;6.47;;;26.10;47.80;;;;;;5098959;28;20111;-71
2023/10/01 09:35:40;;;;;;;10.63;6.47;;;26.20;47.30;;;;;;5098876;28;20093;-67
2023/10/01 09:38:12;;;;;;;9.27;5.63;;;26.20;46.50;;;;;;5099037;28;20036;-71
2023/10/01 09:40:43;;;;;;;9.38;5.88;;;26.20;47.20;;;;;;5098675;28;20039;-73
2023/10/01 09:43:24;;;;;;;10.57;5.82;;;26.30;47.10;;;;;;5097546;28;20074;-68
2023/10/01 09:45:57;;;;;;;8.15;5.47;;;26.20;47.50;;;;;;5098353;28;20441;-65
2023/10/01 09:48:30;;;;;;;8.55;5.63;;;26.20;47.30;;;;;;5098295;28;20438;-67
2023/10/01 09:51:20;;;;;;;11.27;6.78;;;26.30;47.20;;;;;;5098964;28;20035;-69
2023/10/01 09:54:08;;;;;;;9.27;6.10;;;26.30;46.90;;;;;;5098617;28;20023;-65
2023/10/01 09:59:08;;;;;;;;;;;26.40;47.50;;;;;;5098111;28;20070;-68
2023/10/01 10:01:42;;;;;;;10.60;6.45;;;26.40;46.20;;;;;;5098098;28;20240;-66
2023/10/01 10:04:20;;;;;;;8.65;5.90;;;26.40;46.60;;;;;;5098039;28;20043;-70
2023/10/01 10:06:59;;;;;;;12.60;6.72;;;26.50;46.80;;;;;;5096943;28;20111;-67
2023/10/01 10:09:39;;;;;;;11.18;6.57;;;26.60;46.90;;;;;;5098551;28;20026;-64
2023/10/01 10:12:07;;;;;;;9.38;6.07;;;26.60;46.70;;;;;;5097834;28;20054;-71
2023/10/01 10:14:56;;;;;;;11.50;6.93;;;26.50;46.80;;;;;;5097849;28;20090;-70
2023/10/01 10:17:25;;;;;;;8.57;6.00;;;26.40;45.30;;;;;;5096709;28;20058;-66
2023/10/01 10:20:16;;;;;;;9.55;5.70;;;26.40;46.60;;;;;;5097497;28;20035;-67
2023/10/01 10:23:13;;;;;;;10.68;6.25;;;26.50;46.70;;;;;;5097627;28;20028;-66
2023/10/01 10:25:40;;;;;;;9.98;6.22;;;26.60;45.90;;;;;;5096247;28;20020;-66
2023/10/01 10:28:09;;;;;;;10.80;6.25;;;26.70;46.60;;;;;;5097790;28;20095;-68
2023/10/01 10:30:40;;;;;;;8.55;5.90;;;26.70;46.30;;;;;;5097421;28;20032;-65
2023/10/01 10:33:16;;;;;;;9.55;6.20;;;26.80;46.30;;;;;;5097298;28;20028;-67
2023/10/01 10:35:49;;;;;;;9.10;5.93;;;26.80;45.80;;;;;;5097371;28;20032;-63
2023/10/01 10:38:52;;;;;;;9.27;6.00;;;26.90;46.30;;;;;;5097364;28;20123;-67
2023/10/01 10:41:25;;;;;;;9.93;6.55;;;26.80;46.10;;;;;;5097513;28;20107;-69
2023/10/01 10:44:10;;;;;;;9.60;7.05;;;26.70;46.50;;;;;;5096062;28;20067;-62
2023/10/01 10:47:01;;;;;;;10.48;6.22;;;26.80;46.00;;;;;;5097113;28;20057;-67
2023/10/01 10:50:11;;;;;;;11.52;6.32;;;26.80;45.50;;;;;;5095893;28;20031;-61
2023/10/01 10:52:50;;;;;;;8.80;5.80;;;26.80;45.60;;;;;;5096372;28;20035;-67
2023/10/01 10:55:16;;;;;;;9.52;6.57;;;26.90;46.70;;;;;;5096708;28;20445;-66
2023/10/01 10:57:49;;;;;;;11.55;6.55;;;26.90;45.50;;;;;;5097010;28;20098;-65
2023/10/01 11:00:39;;;;;;;10.45;6.65;;;26.90;45.40;;;;;;5096934;28;20476;-64
2023/10/01 11:03:10;;;;;;;8.38;4.93;;;26.80;45.90;;;;;;5096579;28;20032;-67
2023/10/01 11:05:57;;;;;;;12.10;6.15;;;26.80;46.50;;;;;;5096623;28;20033;-66
2023/10/01 11:08:26;;;;;;;10.88;6.50;;;26.90;45.30;;;;;;5097070;28;20020;-65
2023/10/01 11:10:57;;;;;;;10.18;6.25;;;26.80;45.60;;;;;;5095653;28;20024;-66
2023/10/01 11:13:42;;;;;;;9.07;5.75;;;26.80;45.80;;;;;;5096528;28;20350;-65
2023/10/01 11:16:14;;;;;;;10.68;6.45;;;26.80;45.30;;;;;;5096620;28;20032;-67
2023/10/01 11:18:53;;;;;;;8.10;5.93;;;26.90;45.90;;;;;;5096267;28;20028;-66
2023/10/01 11:21:31;;;;;;;9.70;5.82;;;26.90;46.00;;;;;;5096254;28;20063;-70
2023/10/01 11:24:00;;;;;;;10.25;5.95;;;26.90;46.30;;;;;;5094410;28;20062;-68
2023/10/01 11:26:27;;;;;;;9.60;6.18;;;26.90;46.30;;;;;;5095846;28;20032;-66
2023/10/01 11:29:01;;;;;;;11.10;6.88;;;26.80;46.20;;;;;;5096428;28;20031;-67
2023/10/01 11:31:30;;;;;;;10.27;6.50;;;26.80;45.90;;;;;;5096642;28;20049;-64
2023/10/01 11:33:59;;;;;;;10.90;6.35;;;26.70;46.30;;;;;;5095009;28;20034;-66
2023/10/01 11:36:35;;;;;;;9.00;6.32;;;26.70;46.40;;;;;;5096079;28;20090;-66
2023/10/01 11:39:03;;;;;;;10.20;6.15;;;26.80;46.50;;;;;;5095888;28;20052;-68
2023/10/01 11:41:42;;;;;;;12.00;6.28;;;26.80;46.20;;;;;;5095961;28;20024;-65
2023/10/01 11:44:21;;;;;;;10.10;6.47;;;26.70;46.00;;;;;;5078286;28;20407;-64
2023/10/01 11:46:57;;;;;;;8.52;6.15;;;26.70;45.90;;;;;;5096002;28;20031;-67
2023/10/01 11:49:37;;;;;;;9.07;6.45;;;26.70;46.00;;;;;;5095712;28;20119;-67
2023/10/01 11:52:25;;;;;;;10.07;6.45;;;26.90;46.10;;;;;;5095908;28;20066;-65
2023/10/01 11:54:55;;;;;;;9.60;6.60;;;26.90;45.70;;;;;;5095348;28;20085;-67
2023/10/01 11:57:31;;;;;;;11.95;6.47;;;26.80;46.30;;;;;;5095640;28;20040;-67
2023/10/01 12:00:06;;;;;;;12.00;6.88;;;26.80;46.40;;;;;;5095878;28;20039;-64
2023/10/01 12:02:33;;;;;;;11.25;6.80;;;26.70;46.80;;;;;;5094648;28;20068;-63
2023/10/01 12:05:06;;;;;;;11.00;7.30;;;26.50;47.10;;;;;;5094537;28;20339;-65
2023/10/01 12:07:45;;;;;;;11.73;7.18;;;26.50;47.40;;;;;;5095491;28;20039;-64
2023/10/01 12:10:34;;;;;;;11.02;7.15;;;26.50;47.50;;;;;;5095771;28;20032;-63
2023/10/01 12:13:07;;;;;;;11.13;6.88;;;26.40;47.60;;;;;;5095920;28;20394;-69
2023/10/01 12:15:44;;;;;;;11.82;6.85;;;26.40;47.80;;;;;;5095241;28;20346;-65
2023/10/01 12:18:14;;;;;;;8.82;6.38;;;26.40;47.80;;;;;;5095340;28;20027;-64
2023/10/01 12:20:47;;;;;;;9.25;6.50;;;26.50;47.90;;;;;;5095333;28;20038;-69
2023/10/01 12:23:19;;;;;;;11.27;6.85;;;26.60;47.90;;;;;;5095786;28;20035;-64
2023/10/01 12:28:25;;;;;;;10.15;6.35;;;26.70;47.50;;;;;;5095363;28;20063;-67
2023/10/01 12:30:58;;;;;;;11.02;7.32;;;26.60;47.70;;;;;;5095159;28;20032;-66
2023/10/01 12:33:40;;;;;;;10.45;7.25;;;26.50;47.60;;;;;;5095504;28;20099;-67
2023/10/01 12:36:11;;;;;;;12.18;7.38;;;26.40;47.70;;;;;;5094994;28;20467;-67
2023/10/01 12:38:40;;;;;;;10.48;6.90;;;26.40;47.90;;;;;;5094996;28;20087;-66
2023/10/01 12:41:05;;;;;;;9.70;6.82;;;26.50;47.90;;;;;;5095605;28;20052;-65
2023/10/01 12:43:38;;;;;;;9.82;7.13;;;26.50;47.90;;;;;;5095098;28;20078;-65
2023/10/01 12:46:09;;;;;;;12.00;7.03;;;26.50;47.70;;;;;;5093944;28;20020;-69
2023/10/01 12:48:57;;;;;;;9.18;6.53;;;26.40;47.80;;;;;;5095010;28;20025;-65
2023/10/01 12:51:32;;;;;;;11.07;6.65;;;26.50;47.90;;;;;;5094982;28;20360;-65
2023/10/01 12:54:06;;;;;;;10.98;7.28;;;26.50;47.60;;;;;;5095047;28;20039;-64
2023/10/01 12:56:47;;;;;;;10.93;7.20;;;26.50;47.50;;;;;;5094868;28;20449;-65
2023/10/01 12:59:21;;;;;;;9.68;5.97;;;26.50;47.60;;;;;;5095033;28;20024;-65
2023/10/01 13:01:51;;;;;;;11.10;7.20;;;26.50;47.90;;;;;;5077746;28;20032;-62
2023/10/01 13:04:22;;;;;;;9.75;6.55;;;26.50;47.90;;;;;;5095087;28;20036;-62
2023/10/01 13:06:49;;;;;;;9.55;6.10;;;26.50;48.00;;;;;;5095069;28;20036;-62
2023/10/01 13:09:53;;;;;;;9.85;6.55;;;26.60;48.10;;;;;;5095321;28;20027;-65
2023/10/01 13:12:25;;;;;;;9.98;7.15;;;26.60;47.90;;;;;;5094943;28;20020;-62
2023/10/01 13:15:37;;;;;;;10.45;6.80;;;26.60;47.40;;;;;;5094702;28;20030;-64
2023/10/01 13:17:56;;;;;;;12.60;7.57;;;26.50;47.70;;;;;;5089123;28;20032;-63
2023/10/01 13:20:46;;;;;;;11.18;7.15;;;26.50;47.50;;;;;;5093743;28;20101;-67
2023/10/01 13:23:13;;;;;;;9.88;6.50;;;26.50;47.80;;;;;;5094741;28;20103;-64
2023/10/01 13:25:46;;;;;;;10.80;6.55;;;26.50;48.00;;;;;;5094971;28;20457;-64
2023/10/01 13:28:43;;;;;;;10.40;6.53;;;26.50;47.90;;;;;;5094692;28;20035;-64
2023/10/01 13:33:43;;;;;;;10.45;6.90;;;26.70;47.60;;;;;;5095102;28;20056;-66
2023/10/01 13:36:13;;;;;;;8.43;5.85;;;26.70;47.60;;;;;;5098457;28;20030;-66
2023/10/01 14:09:15;;;;;;;11.88;6.43;;;26.60;46.60;;;;;;5098274;28;20047;-63
2023/10/01 14:11:41;;;;;;;10.15;7.05;;;26.60;47.20;;;;;;5097226;28;20079;-65
2023/10/01 14:14:08;;;;;;;9.52;6.28;;;26.60;46.90;;;;;;5098409;28;20043;-67
2023/10/01 14:16:34;;;;;;;10.45;6.85;;;26.60;47.10;;;;;;5097845;28;20023;-65
2023/10/01 14:19:15;;;;;;;10.07;6.75;;;26.60;47.00;;;;;;5098265;28;20032;-66
2023/10/01 14:21:51;;;;;;;9.73;6.13;;;26.50;47.10;;;;;;5098297;28;20020;-68
2023/10/01 14:24:42;;;;;;;12.68;7.13;;;26.50;47.20;;;;;;5097618;28;20107;-66
2023/10/01 14:27:24;;;;;;;10.13;6.50;;;26.50;47.10;;;;;;5097859;28;20024;-67
2023/10/01 14:30:23;;;;;;;9.52;6.47;;;26.50;47.20;;;;;;5097749;28;20032;-66
2023/10/01 14:32:51;;;;;;;9.25;6.57;;;26.50;47.20;;;;;;5097387;28;20078;-64
2023/10/01 14:35:18;;;;;;;11.20;6.60;;;26.50;47.40;;;;;;5097389;28;20024;-66
2023/10/01 14:37:54;;;;;;;9.80;6.63;;;26.60;47.30;;;;;;5096862;28;20039;-66
2023/10/01 14:40:24;;;;;;;10.77;6.20;;;26.60;47.30;;;;;;5096464;28;20040;-68
2023/10/01 14:43:00;;;;;;;12.85;6.90;;;26.50;47.40;;;;;;5095988;28;20043;-65
2023/10/01 14:45:33;;;;;;;10.18;6.90;;;26.50;47.40;;;;;;5095659;28;20386;-68
2023/10/01 14:48:06;;;;;;;9.20;5.40;;;26.50;47.40;;;;;;5096390;28;20375;-63
2023/10/01 14:50:42;;;;;;;10.45;6.95;;;26.50;47.50;;;;;;5096621;28;20107;-65
2023/10/01 14:53:18;;;;;;;12.15;6.47;;;26.50;47.40;;;;;;5096808;28;20032;-65
2023/10/01 14:55:56;;;;;;;8.90;6.72;;;26.50;47.30;;;;;;5096983;28;20039;-67